Kuemmersruck, Germany

9:48 AM CET on December 26, 2014 (GMT +0100)
highlands | Change Station
CLOSE
Current Station
Personal Weather Station
Location: Fensterbach, BAYERN
Elevation: 1280 ft
Nearby Weather Stations
Active Advisory: Snow/Ice 5-10 cm Neuschnee

Elev 1280 ft 49.40 °N, 12.02 °E | Updated 15 seconds ago

Light Snow
Light Snow Fog
33.6 °F
Feels Like 34 °F
N
2.7
Wind Variable Wind from WNW
Gusts 4.9 mph

Today
High -- | Low -- °F
--% Chance of Precip.
Yesterday
High -- | Low -- °F
Precip. -- in
8:07 AM 4:18 PM
Waxing Crescent, 24% visible
Pressure 30.29 in
Visibility 0.5 miles
Clouds Few 300 ft
Scattered Clouds 700 ft
Mostly Cloudy 1600 ft
Overcast 2100 ft
Windchill 34 °F
Dew Point 28 °F
Humidity 81%
Rainfall 0.00 in
Snow Depth Not available.
UV 1.0 out of 12
Pollen Not available.
Air Quality Not available.
Flu Activity Not available.
SPECI ETIC 260844Z AUTO 30010G15KT 0800 -SN FG FEW003 SCT007 BKN016 OVC021 00/M01 A3029 RMK AO2 VIS 0800V9999 SNB0840 RVRNO $

More Conditions Fewer Conditions

Pressure 30.29 in
Visibility 0.5 miles
Clouds Few 300 ft
Scattered Clouds 700 ft
Mostly Cloudy 1600 ft
Overcast 2100 ft
Windchill 34 °F
Dew Point 28 °F
Humidity 81%
Rainfall 0.00 in
Snow Depth Not available.
UV 1.0 out of 12
Pollen Not available.
Air Quality Not available.
Flu Activity Not available.
SPECI ETIC 260844Z AUTO 30010G15KT 0800 -SN FG FEW003 SCT007 BKN016 OVC021 00/M01 A3029 RMK AO2 VIS 0800V9999 SNB0840 RVRNO $

More Conditions Fewer Conditions

10-Day Weather Forecast

Almanac

Astronomy

Dec. 26, 2014 Rise Set
Actual Time
Civil Twilight
Nautical Twilight
Astronomical Twilight
Moon
Length of Visible Light
Length of Day
Tomorrow will be .
, % of the Moon is Illuminated

Today's Extremes

Country Highs Country Lows

Community

WunderPhotos

Upload Photos

1,780,568 photos uploaded!

WunderBlogs® & News

Nearby

Air Quality

  Air Quality AQ Index Pollutant
Not available.

Snow Depth

Station Depth Elevation

Earthquake Activity

City Distance Mag. Time & Date
Minimum magnitude displayed is 2.5.

Coastal Water Temperatures

Place Temperature

Nearby Weather Stations